Aeroporto :
LOGIN :

Iscrizione | Disclaimer

   EN    FR    IT 

 










Sommario :    VFR   VFR Marginale   IFR   IFR Intensivo   IFR Molto Intensivo
Visibilità : 
Base nubi : 
>= 8 km
>= 3000ft
5 / 8 km
1000 / 3000 ft
1500m / 5 km
500 / 1000 ft
800 / 1500m
200 / 500 ft
< 800m
< 200 ft
Simboli :   Temporali  Nebbia  Neve Forte  Precipitazioni Forti  Vento > 20 kt
SIGMETs :   Varie  Temporali  Ghiacco  Turbolenza  Onda orograficha  Ceneri Vulcaniche






- Altitudine del aeroporto : 512 ft
- Codice IATA : URO


LFOP - Rouen Vallée de Seine

ULTIMO METAR :
  • 101500Z AUTO 17017KT 9999 FEW021 SCT092 OVC120 07/04 Q1018

METARs OBSOLETI :
  • 101430Z AUTO 18016KT 9999 FEW024 OVC078 07/04 Q1019
  • 101400Z AUTO 18015KT 9999 FEW021 SCT026 BKN082 07/03 Q1020
  • 101330Z AUTO 19018KT 9999 FEW027 SCT110 BKN160 07/03 Q1020
  • 101300Z AUTO 18015KT 9999 SCT028 BKN110 OVC150 07/03 Q1021
  • 101230Z AUTO 18015KT 9999 BKN029 BKN110 OVC170 07/03 Q1021

TAF TAF LFOP
Valido dal 09 a 18 ore il 10 a 18 ore UTC


091700Z 0918/1018 32015KT 9999 SCT040
BECMG 0920/0922 VRB03KT
BECMG 1005/1008 19012KT
BECMG 1013/1016 19017G27KT BKN011 OVC030
ATIS : +33 2 35 80 80 34
Met : +33 2 32 86 52 80



MetMap, La meteo Aeronautica in un colpo d'occhio ! - Copyright ORBIFLY Dicembre 2007 - Disclaimer

ORBIFLY MET'MAP TEAM :

Programmazione e sviluppo : Alexandra Zaïnal
Concezione : Baudouin d'Aumeries
Aiuto per la programmazione : Marc-Olivier Méhu
Supporto tecnico e logistico : Manuel Goepfert
Aiuto per la traduzione : Arnaldo La Scala

Contatto : metmap@orbifly.com




FONTI E CREDITI :

   NOAA